createdAt,value
2022-09-23T00:01:34.890Z,98573.63
2022-09-23T00:04:01.236Z,98567.75
2022-09-23T00:06:30.635Z,98568.03
2022-09-23T00:08:56.953Z,98580.34
2022-09-23T00:11:26.886Z,98569.56
2022-09-23T00:13:54.020Z,98568.91
2022-09-23T00:16:24.455Z,98571.19
2022-09-23T00:18:50.830Z,98564.66
2022-09-23T00:21:17.953Z,98569.75
2022-09-23T00:23:44.372Z,98564.81
2022-09-23T00:26:12.055Z,98563.50
2022-09-23T00:28:38.443Z,98560.91
2022-09-23T00:31:05.394Z,98561.06
2022-09-23T00:33:31.811Z,98560.97
2022-09-23T00:35:58.812Z,98561.47
2022-09-23T00:38:25.145Z,98559.69
2022-09-23T00:40:51.627Z,98555.66
2022-09-23T00:43:18.361Z,98559.09
2022-09-23T00:45:48.609Z,98552.28
2022-09-23T00:48:16.986Z,98549.94
2022-09-23T00:50:43.983Z,98543.19
2022-09-23T00:53:11.324Z,98541.31
2022-09-23T00:55:39.412Z,98541.59
2022-09-23T00:58:06.538Z,98537.88
2022-09-23T01:00:33.832Z,98545.50
2022-09-23T01:03:00.501Z,98533.28
2022-09-23T01:05:26.848Z,98539.78
2022-09-23T01:07:53.866Z,98541.66
2022-09-23T01:10:21.432Z,98523.16
2022-09-23T01:13:08.469Z,98533.69
2022-09-23T01:15:51.804Z,98539.22
2022-09-23T01:18:53.621Z,98527.00
2022-09-23T01:21:25.600Z,98524.78
2022-09-23T01:23:52.813Z,98515.56
2022-09-23T01:26:24.447Z,98519.78
2022-09-23T01:28:57.202Z,98515.91
2022-09-23T01:31:29.801Z,98514.19
2022-09-23T01:33:56.902Z,98508.84
2022-09-23T01:36:31.432Z,98508.50
2022-09-23T01:39:08.589Z,98510.94
2022-09-23T01:41:44.196Z,98501.53
2022-09-23T01:44:17.482Z,98507.41
2022-09-23T01:46:43.760Z,98506.69
2022-09-23T01:49:13.124Z,98499.16
2022-09-23T01:51:40.613Z,98502.22
2022-09-23T01:54:11.759Z,98495.19
2022-09-23T01:56:38.020Z,98491.75
2022-09-23T01:59:10.379Z,98496.19
2022-09-23T02:01:39.265Z,98492.41
2022-09-23T02:04:25.292Z,98497.03
2022-09-23T02:06:53.091Z,98497.19
2022-09-23T02:09:22.118Z,98491.22
2022-09-23T02:11:48.516Z,98488.19
2022-09-23T02:14:20.884Z,98488.78
2022-09-23T02:16:56.975Z,98490.00
2022-09-23T02:19:34.256Z,98489.88
2022-09-23T02:22:05.446Z,98486.22
2022-09-23T02:24:32.160Z,98490.06
2022-09-23T02:27:18.309Z,98482.53
2022-09-23T02:29:44.586Z,98488.31
2022-09-23T02:32:16.859Z,98487.16
2022-09-23T02:35:03.509Z,98481.28
2022-09-23T02:37:39.119Z,98482.09
2022-09-23T02:40:31.381Z,98484.28
2022-09-23T02:42:57.693Z,98475.72
2022-09-23T02:45:24.114Z,98479.53
2022-09-23T02:47:52.756Z,98472.63
2022-09-23T02:50:19.280Z,98479.53
2022-09-23T02:52:46.245Z,98474.81
2022-09-23T02:55:13.008Z,98475.16
2022-09-23T02:57:39.331Z,98469.78
2022-09-23T03:00:05.929Z,98468.78
2022-09-23T03:02:49.234Z,98462.78
2022-09-23T03:05:15.948Z,98467.75
2022-09-23T03:08:02.290Z,98470.06
2022-09-23T03:10:35.769Z,98462.41
2022-09-23T03:13:14.649Z,98461.13
2022-09-23T03:15:48.307Z,98464.81
2022-09-23T03:18:26.025Z,98465.19
2022-09-23T03:20:53.877Z,98464.44
2022-09-23T03:23:23.528Z,98460.16
2022-09-23T03:25:49.935Z,98456.84
2022-09-23T03:28:17.324Z,98472.09
2022-09-23T03:30:44.055Z,98463.66
2022-09-23T03:33:12.064Z,98462.59
2022-09-23T03:36:01.424Z,98462.25
2022-09-23T03:38:30.246Z,98461.41
2022-09-23T03:40:56.645Z,98456.84
2022-09-23T03:43:22.975Z,98453.97
2022-09-23T03:45:49.378Z,98453.38
2022-09-23T03:48:15.807Z,98446.78
2022-09-23T03:50:42.199Z,98439.63
2022-09-23T03:53:08.576Z,98438.63
2022-09-23T03:55:34.977Z,98432.81
2022-09-23T03:58:03.153Z,98426.13
2022-09-23T04:00:29.514Z,98431.75
2022-09-23T04:02:56.747Z,98419.50
2022-09-23T04:05:23.393Z,98424.50
2022-09-23T04:07:51.055Z,98420.38
2022-09-23T04:10:17.411Z,98421.19
2022-09-23T04:12:43.722Z,98411.38
2022-09-23T04:15:10.299Z,98412.56
2022-09-23T04:17:36.611Z,98408.16
2022-09-23T04:20:03.094Z,98404.44
2022-09-23T04:22:29.452Z,98396.75
2022-09-23T04:24:56.204Z,98392.22
2022-09-23T04:27:22.562Z,98393.72
2022-09-23T04:29:48.922Z,98391.06
2022-09-23T04:32:15.251Z,98394.38
2022-09-23T04:34:41.565Z,98391.00
2022-09-23T04:37:07.930Z,98394.19
2022-09-23T04:39:34.252Z,98394.34
2022-09-23T04:42:00.589Z,98392.75
2022-09-23T04:44:28.548Z,98381.41
2022-09-23T04:46:54.949Z,98379.06
2022-09-23T04:49:21.336Z,98388.38
2022-09-23T04:51:47.851Z,98391.38
2022-09-23T04:54:17.243Z,98380.97
2022-09-23T04:56:45.298Z,98383.78
2022-09-23T04:59:11.612Z,98386.88
2022-09-23T05:01:38.290Z,98390.84
2022-09-23T05:04:05.963Z,98381.75
2022-09-23T05:06:34.446Z,98387.75
2022-09-23T05:09:00.879Z,98386.69
2022-09-23T05:11:27.287Z,98383.59
2022-09-23T05:13:53.958Z,98385.88
2022-09-23T05:16:20.574Z,98386.13
2022-09-23T05:18:46.989Z,98383.94
2022-09-23T05:21:13.790Z,98387.41
2022-09-23T05:23:40.716Z,98384.97
2022-09-23T05:26:07.681Z,98386.66
2022-09-23T05:28:34.240Z,98380.91
2022-09-23T05:31:04.367Z,98379.78
2022-09-23T05:33:31.418Z,98387.28
2022-09-23T05:35:57.988Z,98384.84
2022-09-23T05:38:24.356Z,98378.16
2022-09-23T05:41:03.809Z,98382.09
2022-09-23T05:43:30.348Z,98375.03
2022-09-23T05:46:08.692Z,98381.75
2022-09-23T05:48:35.166Z,98384.16
2022-09-23T05:51:01.668Z,98384.28
2022-09-23T05:53:29.313Z,98376.19
2022-09-23T05:55:56.448Z,98380.59
2022-09-23T05:58:23.566Z,98376.78
2022-09-23T06:00:50.066Z,98373.00
2022-09-23T06:03:16.890Z,98371.72
2022-09-23T06:05:43.252Z,98373.31
2022-09-23T06:08:09.581Z,98373.31
2022-09-23T06:10:36.692Z,98375.06
2022-09-23T06:13:03.164Z,98363.28
2022-09-23T06:15:29.532Z,98372.38
2022-09-23T06:17:55.871Z,98376.31
2022-09-23T06:20:22.242Z,98369.28
2022-09-23T06:22:52.913Z,98377.13
2022-09-23T06:25:23.064Z,98374.00
2022-09-23T06:27:55.603Z,98369.41
2022-09-23T06:30:22.296Z,98368.59
2022-09-23T06:32:50.319Z,98370.56
2022-09-23T06:35:26.368Z,98373.19
2022-09-23T06:37:53.873Z,98374.13
2022-09-23T06:40:20.641Z,98376.91
2022-09-23T06:42:51.494Z,98377.59
2022-09-23T06:45:18.689Z,98376.09
2022-09-23T06:47:45.040Z,98379.22
2022-09-23T06:50:12.465Z,98386.25
2022-09-23T06:52:38.985Z,98379.81
2022-09-23T06:55:05.581Z,98377.47
2022-09-23T06:57:32.795Z,98364.66
2022-09-23T06:59:59.295Z,98374.59
2022-09-23T07:02:26.241Z,98366.53
2022-09-23T07:04:52.864Z,98377.94
2022-09-23T07:07:19.241Z,98377.22
2022-09-23T07:09:45.746Z,98389.72
2022-09-23T07:12:12.273Z,98387.00
2022-09-23T07:14:38.612Z,98383.25
2022-09-23T07:17:04.977Z,98382.09
2022-09-23T07:19:31.488Z,98387.63
2022-09-23T07:21:57.853Z,98389.22
2022-09-23T07:24:24.189Z,98383.38
2022-09-23T07:26:50.579Z,98386.63
2022-09-23T07:29:16.900Z,98380.13
2022-09-23T07:31:43.247Z,98389.81
2022-09-23T07:34:11.570Z,98384.16
2022-09-23T07:36:40.621Z,98381.94
2022-09-23T07:39:08.044Z,98384.97
2022-09-23T07:41:34.527Z,98376.16
2022-09-23T07:44:01.209Z,98377.25
2022-09-23T07:46:28.499Z,98375.81
2022-09-23T07:48:54.929Z,98371.06
2022-09-23T07:51:35.724Z,98371.16
2022-09-23T07:54:02.886Z,98370.19
2022-09-23T07:56:29.678Z,98375.09
2022-09-23T07:59:03.805Z,98375.03
2022-09-23T08:01:34.100Z,98372.59
2022-09-23T08:04:01.383Z,98370.09
2022-09-23T08:06:27.730Z,98373.22
2022-09-23T08:08:54.048Z,98388.66
2022-09-23T08:11:20.386Z,98379.63
2022-09-23T08:13:46.719Z,98381.69
2022-09-23T08:16:13.946Z,98378.16
2022-09-23T08:18:43.289Z,98387.28
2022-09-23T08:21:09.666Z,98382.22
2022-09-23T08:23:36.011Z,98388.63
2022-09-23T08:26:03.295Z,98388.66
2022-09-23T08:28:29.648Z,98384.22
2022-09-23T08:30:56.066Z,98381.28
2022-09-23T08:33:23.574Z,98377.91
2022-09-23T08:35:50.307Z,98380.63
2022-09-23T08:38:16.635Z,98385.56
2022-09-23T08:40:43.929Z,98382.81
2022-09-23T08:43:25.357Z,98382.31
2022-09-23T08:45:52.167Z,98382.53
2022-09-23T08:48:21.187Z,98384.59
2022-09-23T08:50:48.480Z,98382.97
2022-09-23T08:53:23.505Z,98380.34
2022-09-23T08:55:51.108Z,98382.38
2022-09-23T08:58:26.809Z,98388.81
2022-09-23T09:01:07.476Z,98384.16
2022-09-23T09:03:39.760Z,98390.69
2022-09-23T09:06:06.501Z,98389.78
2022-09-23T09:08:33.421Z,98385.22
2022-09-23T09:11:00.036Z,98378.63
2022-09-23T09:13:36.900Z,98383.41
2022-09-23T09:16:15.888Z,98379.00
2022-09-23T09:18:49.107Z,98382.00
2022-09-23T09:21:15.991Z,98384.28
2022-09-23T09:23:45.291Z,98377.88
2022-09-23T09:26:12.124Z,98374.22
2022-09-23T09:28:39.969Z,98377.56
2022-09-23T09:31:15.380Z,98369.03
2022-09-23T09:33:46.284Z,98367.09
2022-09-23T09:36:19.071Z,98364.66
2022-09-23T09:38:45.456Z,98364.06
2022-09-23T09:41:15.794Z,98364.63
2022-09-23T09:43:44.112Z,98364.88
2022-09-23T09:46:45.182Z,98360.88
2022-09-23T09:49:23.267Z,98364.41
2022-09-23T09:52:11.546Z,98355.09
2022-09-23T09:54:38.640Z,98352.50
2022-09-23T09:57:05.316Z,98347.13
2022-09-23T09:59:31.646Z,98352.88
2022-09-23T10:02:16.867Z,98351.00
2022-09-23T10:04:43.433Z,98348.47
2022-09-23T10:07:13.965Z,98346.75
2022-09-23T10:09:41.188Z,98338.56
2022-09-23T10:12:18.455Z,98342.75
2022-09-23T10:14:45.267Z,98334.75
2022-09-23T10:17:15.156Z,98337.00
2022-09-23T10:19:44.710Z,98324.44
2022-09-23T10:22:16.427Z,98335.50
2022-09-23T10:24:42.763Z,98326.94
2022-09-23T10:27:09.446Z,98313.44
2022-09-23T10:29:39.630Z,98319.34
2022-09-23T10:32:20.231Z,98320.28
2022-09-23T10:34:51.478Z,98319.19
2022-09-23T10:37:18.699Z,98315.91
2022-09-23T10:40:03.832Z,98321.34
2022-09-23T10:43:08.194Z,98319.59
2022-09-23T10:45:53.471Z,98326.59
2022-09-23T10:48:24.655Z,98319.16
2022-09-23T10:50:53.967Z,98318.72
2022-09-23T10:53:29.691Z,98319.56
2022-09-23T10:56:00.116Z,98316.88
2022-09-23T10:58:45.344Z,98314.63
2022-09-23T11:01:31.087Z,98320.22
2022-09-23T11:04:14.690Z,98313.44
2022-09-23T11:06:44.169Z,98318.31
2022-09-23T11:09:30.039Z,98314.31
2022-09-23T11:12:14.730Z,98316.31
2022-09-23T11:14:46.887Z,98320.25
2022-09-23T11:17:32.138Z,98311.94
2022-09-23T11:20:02.826Z,98318.81
2022-09-23T11:22:37.379Z,98309.56
2022-09-23T11:25:18.250Z,98309.13
2022-09-23T11:27:50.880Z,98304.75
2022-09-23T11:30:19.924Z,98295.88
2022-09-23T11:32:51.159Z,98301.13
2022-09-23T11:35:36.172Z,98293.88
2022-09-23T11:38:11.956Z,98298.28
2022-09-23T11:40:42.390Z,98284.22
2022-09-23T11:43:18.951Z,98285.81
2022-09-23T11:45:52.636Z,98283.78
2022-09-23T11:48:20.639Z,98284.66
2022-09-23T11:50:58.583Z,98278.66
2022-09-23T11:53:37.311Z,98280.69
2022-09-23T11:56:05.785Z,98273.47
2022-09-23T12:01:07.356Z,98268.28
2022-09-23T12:03:43.917Z,98263.88
2022-09-23T12:06:13.824Z,98261.44
2022-09-23T12:08:40.198Z,98263.44
2022-09-23T12:11:15.981Z,98262.22
2022-09-23T12:13:42.242Z,98257.44
2022-09-23T12:16:10.026Z,98249.88
2022-09-23T12:18:39.375Z,98250.66
2022-09-23T12:21:05.686Z,98241.88
2022-09-23T12:23:36.633Z,98243.47
2022-09-23T12:26:03.686Z,98238.63
2022-09-23T12:28:37.686Z,98233.84
2022-09-23T12:31:04.673Z,98237.81
2022-09-23T12:33:34.127Z,98231.03
2022-09-23T12:36:07.451Z,98238.63
2022-09-23T12:38:40.465Z,98234.63
2022-09-23T12:41:20.626Z,98229.81
2022-09-23T12:43:55.528Z,98231.44
2022-09-23T12:46:28.092Z,98227.03
2022-09-23T12:48:57.854Z,98221.81
2022-09-23T12:51:28.194Z,98225.00
2022-09-23T12:53:55.547Z,98214.59
2022-09-23T12:56:23.111Z,98215.34
2022-09-23T12:58:49.451Z,98212.59
2022-09-23T13:01:17.082Z,98213.00
2022-09-23T13:04:09.079Z,98212.22
2022-09-23T13:06:51.363Z,98218.63
2022-09-23T13:09:20.015Z,98216.59
2022-09-23T13:11:47.965Z,98210.19
2022-09-23T13:14:21.957Z,98204.56
2022-09-23T13:16:51.680Z,98205.78
2022-09-23T13:19:27.209Z,98211.31
2022-09-23T13:21:53.517Z,98202.13
2022-09-23T13:24:22.864Z,98202.47
2022-09-23T13:26:57.212Z,98202.41
2022-09-23T13:29:24.111Z,98207.22
2022-09-23T13:31:50.586Z,98200.72
2022-09-23T13:34:18.477Z,98204.06
2022-09-23T13:36:45.401Z,98194.22
2022-09-23T13:39:16.129Z,98188.34
2022-09-23T13:41:43.335Z,98198.22
2022-09-23T13:44:13.252Z,98192.44
2022-09-23T13:46:44.278Z,98188.44
2022-09-23T13:49:24.544Z,98190.03
2022-09-23T13:51:51.557Z,98194.03
2022-09-23T13:54:26.786Z,98201.25
2022-09-23T13:56:53.101Z,98193.59
2022-09-23T13:59:24.029Z,98192.38
2022-09-23T14:01:50.445Z,98195.63
2022-09-23T14:04:24.300Z,98193.59
2022-09-23T14:06:50.620Z,98192.09
2022-09-23T14:09:22.833Z,98189.34
2022-09-23T14:11:49.485Z,98182.13
2022-09-23T14:14:15.814Z,98173.69
2022-09-23T14:16:42.231Z,98176.94
2022-09-23T14:19:11.436Z,98176.09
2022-09-23T14:21:38.339Z,98166.13
2022-09-23T14:24:21.005Z,98164.09
2022-09-23T14:26:48.661Z,98166.91
2022-09-23T14:29:23.614Z,98165.28
2022-09-23T14:31:57.316Z,98160.06
2022-09-23T14:34:42.559Z,98168.88
2022-09-23T14:37:47.718Z,98155.59
2022-09-23T14:40:15.277Z,98159.94
2022-09-23T14:42:42.605Z,98154.03
2022-09-23T14:45:10.502Z,98153.25
2022-09-23T14:47:36.861Z,98147.19
2022-09-23T14:50:22.077Z,98143.16
2022-09-23T14:52:51.671Z,98147.97
2022-09-23T14:55:18.308Z,98145.63
2022-09-23T14:57:44.796Z,98147.16
2022-09-23T15:00:16.145Z,98138.75
2022-09-23T15:02:43.251Z,98134.31
2022-09-23T15:05:19.809Z,98135.13
2022-09-23T15:07:50.356Z,98134.00
2022-09-23T15:10:17.930Z,98140.41
2022-09-23T15:12:44.839Z,98132.78
2022-09-23T15:15:14.243Z,98132.81
2022-09-23T15:17:40.630Z,98124.84
2022-09-23T15:20:08.496Z,98127.63
2022-09-23T15:22:45.266Z,98125.66
2022-09-23T15:25:15.753Z,98121.63
2022-09-23T15:27:42.104Z,98112.38
2022-09-23T15:30:15.820Z,98121.13
2022-09-23T15:32:42.685Z,98119.50
2022-09-23T15:35:15.614Z,98115.88
2022-09-23T15:37:42.851Z,98113.44
2022-09-23T15:40:28.159Z,98113.75
2022-09-23T15:42:56.094Z,98116.47
2022-09-23T15:45:33.344Z,98111.53
2022-09-23T15:48:00.859Z,98111.50
2022-09-23T15:50:27.457Z,98110.75
2022-09-23T15:52:53.893Z,98110.81
2022-09-23T15:55:23.539Z,98115.84
2022-09-23T15:57:49.950Z,98116.66
2022-09-23T16:00:16.502Z,98102.66
2022-09-23T16:02:43.862Z,98113.41
2022-09-23T16:05:21.942Z,98110.19
2022-09-23T16:07:48.593Z,98113.44
2022-09-23T16:10:15.394Z,98103.38
2022-09-23T16:12:41.715Z,98108.88
2022-09-23T16:15:13.267Z,98107.13
2022-09-23T16:17:39.629Z,98105.47
2022-09-23T16:20:06.145Z,98098.97
2022-09-23T16:22:32.458Z,98099.69
2022-09-23T16:24:58.811Z,98093.28
2022-09-23T16:27:26.033Z,98095.31
2022-09-23T16:29:52.358Z,98094.84
2022-09-23T16:32:22.129Z,98092.69
2022-09-23T16:34:48.694Z,98097.38
2022-09-23T16:37:16.613Z,98090.16
2022-09-23T16:39:42.972Z,98086.47
2022-09-23T16:42:09.813Z,98087.25
2022-09-23T16:44:37.325Z,98088.44
2022-09-23T16:47:03.921Z,98092.94
2022-09-23T16:49:30.292Z,98088.91
2022-09-23T16:51:56.630Z,98087.25
2022-09-23T16:54:23.885Z,98083.72
2022-09-23T16:56:50.699Z,98087.59
2022-09-23T16:59:17.135Z,98086.03
2022-09-23T17:02:02.778Z,98080.88
2022-09-23T17:04:29.195Z,98086.31
2022-09-23T17:06:56.387Z,98093.44
2022-09-23T17:09:30.212Z,98082.13
2022-09-23T17:12:11.281Z,98090.84
2022-09-23T17:14:37.837Z,98087.63
2022-09-23T17:17:04.188Z,98087.25
2022-09-23T17:19:30.510Z,98086.50
2022-09-23T17:21:57.089Z,98088.25
2022-09-23T17:24:23.815Z,98092.03
2022-09-23T17:26:53.114Z,98089.56
2022-09-23T17:29:19.804Z,98095.97
2022-09-23T17:31:46.589Z,98091.19
2022-09-23T17:34:13.010Z,98092.09
2022-09-23T17:36:39.775Z,98094.88
2022-09-23T17:39:06.985Z,98090.81
2022-09-23T17:41:33.319Z,98098.09
2022-09-23T17:44:00.537Z,98087.31
2022-09-23T17:46:30.876Z,98088.97
2022-09-23T17:48:57.223Z,98085.72
2022-09-23T17:51:23.979Z,98093.53
2022-09-23T17:53:50.306Z,98083.19
2022-09-23T17:56:17.700Z,98087.88
2022-09-23T17:58:44.639Z,98087.88
2022-09-23T18:01:11.619Z,98084.81
2022-09-23T18:03:38.093Z,98087.97
2022-09-23T18:06:08.337Z,98086.78
2022-09-23T18:08:34.729Z,98080.41
2022-09-23T18:11:01.080Z,98078.06
2022-09-23T18:13:27.743Z,98082.50
2022-09-23T18:15:54.147Z,98077.41
2022-09-23T18:18:20.500Z,98079.44
2022-09-23T18:20:46.872Z,98069.59
2022-09-23T18:23:13.205Z,98067.59
2022-09-23T18:25:40.142Z,98065.66
2022-09-23T18:28:06.636Z,98074.66
2022-09-23T18:30:33.417Z,98076.84
2022-09-23T18:32:59.964Z,98069.47
2022-09-23T18:35:26.500Z,98068.72
2022-09-23T18:37:52.838Z,98076.78
2022-09-23T18:40:19.250Z,98073.28
2022-09-23T18:42:45.650Z,98080.38
2022-09-23T18:45:12.043Z,98079.72
2022-09-23T18:47:57.158Z,98074.09
2022-09-23T18:50:43.684Z,98079.00
2022-09-23T18:53:10.143Z,98080.63
2022-09-23T18:55:36.539Z,98078.63
2022-09-23T18:58:02.936Z,98079.75
2022-09-23T19:00:29.961Z,98074.78
2022-09-23T19:02:56.439Z,98073.00
2022-09-23T19:05:22.782Z,98071.69
2022-09-23T19:07:49.145Z,98079.25
2022-09-23T19:10:15.465Z,98071.19
2022-09-23T19:12:41.815Z,98071.31
2022-09-23T19:15:08.221Z,98067.50
2022-09-23T19:17:34.585Z,98067.00
2022-09-23T19:20:00.972Z,98071.78
2022-09-23T19:22:27.608Z,98068.91
2022-09-23T19:24:53.919Z,98063.00
2022-09-23T19:27:20.259Z,98057.25
2022-09-23T19:29:47.391Z,98059.19
2022-09-23T19:32:16.585Z,98051.63
2022-09-23T19:34:44.219Z,98049.97
2022-09-23T19:37:10.623Z,98051.41
2022-09-23T19:39:37.546Z,98049.66
2022-09-23T19:42:04.264Z,98044.69
2022-09-23T19:44:30.649Z,98046.06
2022-09-23T19:46:57.621Z,98041.34
2022-09-23T19:49:24.681Z,98032.94
2022-09-23T19:51:51.470Z,98035.28
2022-09-23T19:54:21.071Z,98042.59
2022-09-23T19:56:48.593Z,98043.03
2022-09-23T19:59:18.486Z,98039.97
2022-09-23T20:01:45.659Z,98048.00
2022-09-23T20:04:12.032Z,98043.47
2022-09-23T20:06:38.854Z,98035.78
2022-09-23T20:09:05.286Z,98036.16
2022-09-23T20:11:32.433Z,98038.97
2022-09-23T20:14:01.653Z,98036.81
2022-09-23T20:16:29.218Z,98048.47
2022-09-23T20:18:56.204Z,98042.34
2022-09-23T20:21:22.699Z,98036.19
2022-09-23T20:23:49.025Z,98036.19
2022-09-23T20:26:34.219Z,98032.16
2022-09-23T20:29:01.308Z,98022.69
2022-09-23T20:31:28.633Z,98020.66
2022-09-23T20:33:58.122Z,98019.81
2022-09-23T20:36:27.928Z,98022.25
2022-09-23T20:38:59.373Z,98024.16
2022-09-23T20:41:26.673Z,98023.41
2022-09-23T20:43:56.060Z,98022.63
2022-09-23T20:46:25.804Z,98020.47
2022-09-23T20:48:52.250Z,98020.81
2022-09-23T20:51:18.649Z,98027.63
2022-09-23T20:53:45.721Z,98029.06
2022-09-23T20:56:13.374Z,98023.06
2022-09-23T20:58:40.409Z,98020.63
2022-09-23T21:01:10.770Z,98023.94
2022-09-23T21:03:38.572Z,98021.59
2022-09-23T21:06:05.446Z,98024.63
2022-09-23T21:08:33.229Z,98023.16
2022-09-23T21:11:00.186Z,98025.94
2022-09-23T21:13:26.535Z,98018.56
2022-09-23T21:15:52.896Z,98029.94
2022-09-23T21:18:22.511Z,98011.00
2022-09-23T21:20:55.469Z,98007.69
2022-09-23T21:23:29.222Z,98012.91
2022-09-23T21:26:08.474Z,98004.97
2022-09-23T21:28:41.486Z,98009.75
2022-09-23T21:31:08.593Z,98003.78
2022-09-23T21:33:37.326Z,98007.50
2022-09-23T21:36:04.110Z,98004.78
2022-09-23T21:38:30.819Z,98007.00
2022-09-23T21:40:58.226Z,97997.28
2022-09-23T21:43:28.094Z,98000.72
2022-09-23T21:45:57.154Z,98007.13
2022-09-23T21:48:24.276Z,97998.88
2022-09-23T21:50:54.529Z,98003.41
2022-09-23T21:53:21.165Z,98002.41
2022-09-23T21:55:48.676Z,97997.25
2022-09-23T21:58:14.998Z,98003.19
2022-09-23T22:00:41.346Z,98000.31
2022-09-23T22:03:08.126Z,98007.91
2022-09-23T22:05:34.462Z,98010.31
2022-09-23T22:08:00.834Z,98011.94
2022-09-23T22:10:27.146Z,98004.75
2022-09-23T22:12:53.478Z,98006.19
2022-09-23T22:15:20.279Z,98009.09
2022-09-23T22:17:48.051Z,98017.47
2022-09-23T22:20:15.936Z,98015.78
2022-09-23T22:22:42.284Z,98007.72
2022-09-23T22:25:08.856Z,98010.84
2022-09-23T22:27:55.152Z,98012.38
2022-09-23T22:30:40.309Z,98010.28
2022-09-23T22:33:07.004Z,98006.88
2022-09-23T22:35:33.320Z,98014.91
2022-09-23T22:38:00.977Z,98008.38
2022-09-23T22:40:27.355Z,98013.06
2022-09-23T22:42:54.221Z,98013.31
2022-09-23T22:45:20.593Z,98004.41
2022-09-23T22:47:46.943Z,98004.63
2022-09-23T22:50:14.364Z,98007.19
2022-09-23T22:52:41.137Z,98006.56
2022-09-23T22:55:10.392Z,98004.13
2022-09-23T22:57:36.835Z,97994.66
2022-09-23T23:00:04.286Z,97995.34
2022-09-23T23:02:31.480Z,97997.03
2022-09-23T23:05:00.277Z,97997.66
2022-09-23T23:07:26.624Z,97986.81
2022-09-23T23:09:53.259Z,97983.34
2022-09-23T23:12:20.129Z,97983.88
2022-09-23T23:14:46.886Z,97976.53
2022-09-23T23:17:13.285Z,97973.56
2022-09-23T23:19:39.614Z,97972.94
2022-09-23T23:22:05.963Z,97968.06
2022-09-23T23:24:32.362Z,97973.09
2022-09-23T23:26:58.705Z,97977.38
2022-09-23T23:29:25.026Z,97971.91
2022-09-23T23:31:51.557Z,97971.06
2022-09-23T23:34:18.675Z,97969.50
2022-09-23T23:36:45.726Z,97966.34
2022-09-23T23:39:12.286Z,97966.19
2022-09-23T23:41:39.513Z,97966.56
2022-09-23T23:44:05.857Z,97962.97
2022-09-23T23:46:32.418Z,97967.69
2022-09-23T23:48:58.967Z,97956.09
2022-09-23T23:51:26.496Z,97958.69
2022-09-23T23:53:55.864Z,97964.00
2022-09-23T23:56:22.910Z,97959.38
2022-09-23T23:58:53.227Z,97956.53
